Time;durP1;ratioP1;P1;durP2;ratioP2;P2;SDS_P1;SDS_P2;PMS_P1;PMS_P2;Temp;Humidity;BMP_temperature;BMP_pressure;BME280_temperature;BME280_humidity;BME280_pressure;Samples;Min_cycle;Max_cycle;Signal;HPM_P1;HPM_P2
2023/09/19 00:01:33;;;;;;;5.35;1.70;;;14.90;99.90;;;;;;4968638;28;20117;-76
2023/09/19 00:03:59;;;;;;;7.22;1.77;;;14.90;99.90;;;;;;4973382;28;20078;-75
2023/09/19 00:06:25;;;;;;;6.75;1.88;;;14.90;99.90;;;;;;4970691;28;20039;-81
2023/09/19 00:08:52;;;;;;;9.20;2.25;;;14.90;99.90;;;;;;4973814;28;20046;-74
2023/09/19 00:11:18;;;;;;;12.07;2.15;;;14.90;99.90;;;;;;4974738;28;20079;-74
2023/09/19 00:13:43;;;;;;;9.30;1.75;;;14.90;99.90;;;;;;4966779;28;20074;-74
2023/09/19 00:16:11;;;;;;;8.05;1.77;;;14.80;99.90;;;;;;4971918;28;20493;-73
2023/09/19 00:18:39;;;;;;;8.40;2.05;;;14.90;99.90;;;;;;4973197;28;20132;-73
2023/09/19 00:21:05;;;;;;;10.73;2.15;;;14.80;99.90;;;;;;4973386;28;20050;-77
2023/09/19 00:23:33;;;;;;;11.85;2.05;;;14.80;99.90;;;;;;4965874;28;20047;-73
2023/09/19 00:26:00;;;;;;;9.63;1.73;;;14.80;99.90;;;;;;4974003;28;20035;-80
2023/09/19 00:28:26;;;;;;;11.45;2.35;;;14.70;99.90;;;;;;4970815;28;20148;-73
2023/09/19 00:30:52;;;;;;;12.95;2.20;;;14.70;99.90;;;;;;4972390;28;20517;-74
2023/09/19 00:33:19;;;;;;;7.70;2.30;;;14.70;99.90;;;;;;4966520;28;20070;-76
2023/09/19 00:35:52;;;;;;;10.60;2.03;;;14.70;99.90;;;;;;4956563;28;20042;-73
2023/09/19 00:38:21;;;;;;;12.88;2.53;;;14.70;99.90;;;;;;4972704;28;20476;-77
2023/09/19 00:40:47;;;;;;;13.93;2.67;;;14.70;99.90;;;;;;4973475;28;20464;-73
2023/09/19 00:43:13;;;;;;;9.88;2.72;;;14.70;99.90;;;;;;4966860;28;20042;-73
2023/09/19 00:45:43;;;;;;;10.75;2.08;;;14.60;99.90;;;;;;4971485;28;20039;-73
2023/09/19 00:48:09;;;;;;;10.15;2.20;;;14.60;99.90;;;;;;4974186;28;20101;-73
2023/09/19 00:50:35;;;;;;;14.10;2.28;;;14.60;99.90;;;;;;4972004;28;20041;-73
2023/09/19 00:53:07;;;;;;;9.10;2.35;;;14.60;99.90;;;;;;4962944;28;20046;-74
2023/09/19 00:55:34;;;;;;;11.63;2.40;;;14.50;99.90;;;;;;4972091;28;20166;-73
2023/09/19 00:58:00;;;;;;;10.80;2.35;;;14.60;99.90;;;;;;4967708;28;20046;-73
2023/09/19 01:00:26;;;;;;;12.80;2.22;;;14.60;99.90;;;;;;4972868;28;20043;-73
2023/09/19 01:02:52;;;;;;;14.65;2.65;;;14.60;99.90;;;;;;4966659;28;20429;-73
2023/09/19 01:05:18;;;;;;;11.45;2.10;;;14.60;99.90;;;;;;4949758;28;20239;-74
2023/09/19 01:07:44;;;;;;;10.32;2.78;;;14.50;99.90;;;;;;4973996;28;20427;-73
2023/09/19 01:10:15;;;;;;;11.75;2.35;;;14.50;99.90;;;;;;4970236;28;20047;-82
2023/09/19 01:13:05;;;;;;;10.48;2.17;;;14.50;99.90;;;;;;4971630;28;20039;-73
2023/09/19 01:15:46;;;;;;;12.63;2.40;;;14.50;99.90;;;;;;4965072;28;20519;-73
2023/09/19 01:18:21;;;;;;;11.25;2.53;;;14.50;99.90;;;;;;4970390;28;20115;-73
2023/09/19 01:21:07;;;;;;;9.10;2.03;;;14.50;99.90;;;;;;4972524;28;20051;-77
2023/09/19 01:23:53;;;;;;;8.68;2.38;;;14.40;99.90;;;;;;4968758;28;20125;-77
2023/09/19 01:26:44;;;;;;;10.57;2.58;;;14.40;99.90;;;;;;4967829;28;20497;-73
2023/09/19 01:29:34;;;;;;;13.00;2.60;;;14.40;99.90;;;;;;4959938;28;20043;-73
2023/09/19 01:32:05;;;;;;;9.98;2.45;;;14.40;99.90;;;;;;4984911;28;20054;-77
2023/09/19 01:34:52;;;;;;;12.52;3.13;;;14.40;99.90;;;;;;4967732;28;20041;-74
2023/09/19 01:37:25;;;;;;;11.70;2.78;;;14.30;99.90;;;;;;4970851;28;20038;-73
2023/09/19 01:40:07;;;;;;;13.13;3.10;;;14.30;99.90;;;;;;4964695;28;20493;-77
2023/09/19 01:42:51;;;;;;;16.80;2.75;;;14.30;99.90;;;;;;4960325;28;20035;-78
2023/09/19 01:45:40;;;;;;;11.07;2.70;;;14.30;99.90;;;;;;4969541;28;20038;-73
2023/09/19 01:48:16;;;;;;;17.67;3.08;;;14.30;99.90;;;;;;4967549;28;20057;-74
2023/09/19 01:50:58;;;;;;;9.00;2.35;;;14.20;99.90;;;;;;4969770;28;20129;-76
2023/09/19 01:53:30;;;;;;;14.52;2.50;;;14.20;99.90;;;;;;4960216;28;20043;-73
2023/09/19 01:55:57;;;;;;;7.72;2.60;;;14.20;99.90;;;;;;4968300;28;20397;-75
2023/09/19 01:58:45;;;;;;;12.18;2.55;;;14.10;99.90;;;;;;4971822;28;20055;-73
2023/09/19 02:01:16;;;;;;;8.38;2.33;;;14.10;99.90;;;;;;4966274;28;20393;-73
2023/09/19 02:03:44;;;;;;;10.35;2.63;;;14.10;99.90;;;;;;4971172;28;20054;-78
2023/09/19 02:06:18;;;;;;;13.77;2.60;;;14.20;99.90;;;;;;4969092;28;20034;-77
2023/09/19 02:08:44;;;;;;;14.18;2.83;;;14.10;99.90;;;;;;4965256;28;20452;-73
2023/09/19 02:11:11;;;;;;;10.30;2.70;;;14.10;99.90;;;;;;4970564;28;20066;-73
2023/09/19 02:13:37;;;;;;;8.30;2.50;;;14.10;99.90;;;;;;4972453;28;20054;-73
2023/09/19 02:16:04;;;;;;;10.77;2.55;;;14.10;99.90;;;;;;4970953;28;20053;-73
2023/09/19 02:18:30;;;;;;;7.43;2.80;;;14.00;99.90;;;;;;4969751;28;20285;-75
2023/09/19 02:20:58;;;;;;;13.23;2.85;;;14.00;99.90;;;;;;4968607;28;20063;-81
2023/09/19 02:23:24;;;;;;;13.05;2.35;;;14.00;99.90;;;;;;4971328;28;20109;-73
2023/09/19 02:25:54;;;;;;;11.35;2.40;;;14.00;99.90;;;;;;4972101;28;20130;-79
2023/09/19 02:28:19;;;;;;;12.30;2.28;;;14.00;99.90;;;;;;4966907;28;20043;-73
2023/09/19 02:30:48;;;;;;;11.27;2.40;;;14.00;99.90;;;;;;4969423;28;20543;-72
2023/09/19 02:33:14;;;;;;;10.60;2.42;;;14.00;99.90;;;;;;4971818;28;20058;-81
2023/09/19 02:35:40;;;;;;;8.85;2.58;;;13.90;99.90;;;;;;4968641;28;20058;-74
2023/09/19 02:38:07;;;;;;;9.82;2.13;;;13.90;99.90;;;;;;4972201;28;20035;-73
2023/09/19 02:40:35;;;;;;;11.68;2.38;;;13.90;99.90;;;;;;4971224;28;20163;-74
2023/09/19 02:43:01;;;;;;;11.63;2.13;;;13.90;99.90;;;;;;4965879;28;20035;-73
2023/09/19 02:45:27;;;;;;;11.27;2.25;;;13.90;99.90;;;;;;4967723;28;20401;-73
2023/09/19 02:47:54;;;;;;;10.60;2.53;;;13.90;99.90;;;;;;4971010;28;20054;-74
2023/09/19 02:50:20;;;;;;;6.25;2.40;;;13.90;99.90;;;;;;4967788;28;20042;-73
2023/09/19 02:52:48;;;;;;;12.48;2.25;;;13.90;99.90;;;;;;4978459;28;20038;-73
2023/09/19 02:55:17;;;;;;;12.13;2.35;;;13.80;99.90;;;;;;4970375;28;20085;-73
2023/09/19 02:57:50;;;;;;;8.05;2.35;;;13.80;99.90;;;;;;4969785;28;20039;-77
2023/09/19 03:00:21;;;;;;;9.93;2.60;;;13.80;99.90;;;;;;4969523;28;20054;-73
2023/09/19 03:02:52;;;;;;;8.75;2.47;;;13.80;99.90;;;;;;4967089;28;20031;-72
2023/09/19 03:05:18;;;;;;;8.75;2.70;;;13.80;99.90;;;;;;4955622;23;20505;-73
2023/09/19 03:07:46;;;;;;;10.45;2.70;;;13.80;99.90;;;;;;4935400;29;20412;-73
2023/09/19 03:10:15;;;;;;;9.32;2.55;;;13.80;99.90;;;;;;4935290;29;20074;-75
2023/09/19 03:12:42;;;;;;;11.18;2.70;;;13.80;99.90;;;;;;4952147;29;20047;-77
2023/09/19 03:15:08;;;;;;;10.43;2.30;;;13.80;99.90;;;;;;4942228;29;20043;-74
2023/09/19 03:17:34;;;;;;;9.93;2.58;;;13.80;99.90;;;;;;4934401;29;20050;-74
2023/09/19 03:20:00;;;;;;;10.57;2.45;;;13.80;99.90;;;;;;4932102;29;20040;-74
2023/09/19 03:22:27;;;;;;;6.70;2.20;;;13.80;99.90;;;;;;4949264;29;20057;-74
2023/09/19 03:24:53;;;;;;;7.80;2.20;;;13.90;99.90;;;;;;4952089;29;20043;-73
2023/09/19 03:27:18;;;;;;;9.18;2.58;;;13.90;99.90;;;;;;4935073;29;20051;-73
2023/09/19 03:29:44;;;;;;;11.63;2.60;;;13.90;99.90;;;;;;4952048;29;20058;-74
2023/09/19 03:32:10;;;;;;;9.07;2.83;;;14.00;99.90;;;;;;4936709;28;20071;-78
2023/09/19 03:34:43;;;;;;;9.93;2.60;;;13.90;99.90;;;;;;4943448;29;20035;-77
2023/09/19 03:37:09;;;;;;;9.95;2.30;;;14.00;99.90;;;;;;4927195;29;20132;-73
2023/09/19 03:39:35;;;;;;;9.07;2.30;;;14.00;99.90;;;;;;4949921;29;20059;-73
2023/09/19 03:42:03;;;;;;;12.63;2.58;;;14.00;99.90;;;;;;4951165;29;20039;-70
2023/09/19 03:44:30;;;;;;;11.93;2.40;;;14.10;99.90;;;;;;4935912;29;20118;-70
2023/09/19 03:46:56;;;;;;;11.02;3.13;;;14.00;99.90;;;;;;4934695;29;20046;-70
2023/09/19 03:49:23;;;;;;;11.77;2.83;;;14.10;99.90;;;;;;4959169;28;20263;-70
2023/09/19 03:51:48;;;;;;;11.38;2.70;;;14.10;99.90;;;;;;4931715;28;20043;-72
2023/09/19 03:54:14;;;;;;;9.00;2.60;;;14.10;99.90;;;;;;4951056;28;20392;-70
2023/09/19 03:56:40;;;;;;;8.43;2.42;;;14.10;99.90;;;;;;4938090;28;20035;-70
2023/09/19 03:59:06;;;;;;;9.65;2.50;;;14.10;99.90;;;;;;4934566;29;20039;-70
2023/09/19 04:01:33;;;;;;;7.90;2.72;;;14.10;99.90;;;;;;4949430;29;20073;-70
2023/09/19 04:04:07;;;;;;;9.55;2.65;;;14.10;99.90;;;;;;4949652;28;20098;-71
2023/09/19 04:06:36;;;;;;;10.77;3.00;;;14.20;99.90;;;;;;4936068;29;20079;-71
2023/09/19 04:09:06;;;;;;;8.68;2.53;;;14.20;99.90;;;;;;4951317;28;20425;-71
2023/09/19 04:11:33;;;;;;;9.15;3.00;;;14.20;99.90;;;;;;4950481;28;20070;-70
2023/09/19 04:13:58;;;;;;;11.32;3.05;;;14.10;99.90;;;;;;4941067;29;20074;-70
2023/09/19 04:16:24;;;;;;;13.95;2.83;;;14.10;99.90;;;;;;4945348;28;20514;-70
2023/09/19 04:18:50;;;;;;;11.07;2.45;;;14.10;99.90;;;;;;4945538;28;20495;-70
2023/09/19 04:21:16;;;;;;;11.30;2.92;;;14.10;99.90;;;;;;4934614;29;20059;-72
2023/09/19 04:23:42;;;;;;;11.38;2.70;;;14.10;99.90;;;;;;4932030;29;20142;-70
2023/09/19 04:26:08;;;;;;;11.55;3.13;;;14.10;99.90;;;;;;4935471;28;20386;-70
2023/09/19 04:28:34;;;;;;;17.48;2.97;;;14.00;99.90;;;;;;4950774;28;20031;-70
2023/09/19 04:31:00;;;;;;;10.80;2.50;;;14.00;99.90;;;;;;4942605;28;20043;-70
2023/09/19 04:33:29;;;;;;;11.38;2.67;;;14.00;99.90;;;;;;4952078;28;20043;-70
2023/09/19 04:35:55;;;;;;;13.02;2.88;;;14.00;99.90;;;;;;4937243;28;20557;-70
2023/09/19 04:38:21;;;;;;;9.65;3.03;;;14.00;99.90;;;;;;4943321;28;20541;-70
2023/09/19 04:40:47;;;;;;;13.43;3.05;;;13.90;99.90;;;;;;4947355;28;20047;-70
2023/09/19 04:43:13;;;;;;;12.70;3.35;;;13.90;99.90;;;;;;4936419;29;20565;-70
2023/09/19 04:45:40;;;;;;;13.45;3.10;;;13.90;99.90;;;;;;4934538;28;20111;-69
2023/09/19 04:48:08;;;;;;;14.52;2.67;;;13.80;99.90;;;;;;4936584;29;20110;-70
2023/09/19 04:50:34;;;;;;;15.23;2.60;;;13.90;99.90;;;;;;4937437;29;20433;-71
2023/09/19 04:53:00;;;;;;;10.50;2.47;;;13.90;99.90;;;;;;4939963;28;20046;-73
2023/09/19 04:55:26;;;;;;;10.52;3.28;;;13.80;99.90;;;;;;4937856;29;20047;-71
2023/09/19 04:57:55;;;;;;;13.63;2.88;;;13.80;99.90;;;;;;4937464;28;20049;-73
2023/09/19 05:00:24;;;;;;;16.20;3.50;;;13.80;99.90;;;;;;4953668;28;20047;-70
2023/09/19 05:02:51;;;;;;;16.42;2.97;;;13.80;99.90;;;;;;4921131;29;20053;-70
2023/09/19 05:05:18;;;;;;;13.32;2.88;;;13.80;99.90;;;;;;4937467;29;20514;-73
2023/09/19 05:07:45;;;;;;;15.60;3.22;;;13.80;99.90;;;;;;4934657;29;20137;-72
2023/09/19 05:10:11;;;;;;;13.02;2.83;;;13.80;99.90;;;;;;4935290;28;20051;-70
2023/09/19 05:12:37;;;;;;;13.75;2.85;;;13.80;99.90;;;;;;4938123;28;20102;-70
2023/09/19 05:15:04;;;;;;;14.27;3.40;;;13.80;99.90;;;;;;4933851;29;20043;-71
2023/09/19 05:17:31;;;;;;;11.13;2.50;;;13.70;99.90;;;;;;4934730;29;20027;-70
2023/09/19 05:19:57;;;;;;;13.38;2.92;;;13.70;99.90;;;;;;4937808;29;20509;-70
2023/09/19 05:22:24;;;;;;;18.02;3.17;;;13.70;99.90;;;;;;4954058;28;20054;-69
2023/09/19 05:24:51;;;;;;;8.55;2.92;;;13.70;99.90;;;;;;4933422;29;20054;-70
2023/09/19 05:27:16;;;;;;;16.42;3.33;;;13.60;99.90;;;;;;4936243;28;20105;-70
2023/09/19 05:29:45;;;;;;;8.50;2.63;;;13.60;99.90;;;;;;4940711;29;20449;-70
2023/09/19 05:32:11;;;;;;;17.20;3.10;;;13.60;99.90;;;;;;4954119;29;20039;-70
2023/09/19 05:34:38;;;;;;;9.65;2.63;;;13.60;99.90;;;;;;4952558;29;20075;-74
2023/09/19 05:37:05;;;;;;;13.80;2.67;;;13.60;99.90;;;;;;4936671;29;20070;-70
2023/09/19 05:39:30;;;;;;;14.27;2.33;;;13.60;99.90;;;;;;4938623;29;20102;-70
2023/09/19 05:41:57;;;;;;;18.25;3.15;;;13.50;99.90;;;;;;4953761;29;20537;-69
2023/09/19 05:44:23;;;;;;;11.18;2.70;;;13.50;99.90;;;;;;4935942;28;20043;-70
2023/09/19 05:46:49;;;;;;;17.30;2.80;;;13.50;99.90;;;;;;4934658;28;20047;-70
2023/09/19 05:49:15;;;;;;;11.68;3.03;;;13.50;99.90;;;;;;4951491;28;20585;-69
2023/09/19 05:51:41;;;;;;;12.13;2.60;;;13.20;99.90;;;;;;4945120;29;20126;-70
2023/09/19 05:54:06;;;;;;;12.73;2.55;;;13.40;99.90;;;;;;4953113;28;20170;-70
2023/09/19 05:56:32;;;;;;;12.52;2.85;;;13.50;99.90;;;;;;4937015;29;20035;-70
2023/09/19 05:58:58;;;;;;;14.90;2.78;;;13.40;99.90;;;;;;4953022;28;20051;-73
2023/09/19 06:01:23;;;;;;;13.63;2.65;;;13.40;99.90;;;;;;4950047;29;20394;-69
2023/09/19 06:03:49;;;;;;;15.18;2.72;;;13.50;99.90;;;;;;4942868;29;20043;-69
2023/09/19 06:06:14;;;;;;;19.60;3.35;;;13.50;99.90;;;;;;4939729;29;20094;-70
2023/09/19 06:08:40;;;;;;;19.67;3.20;;;13.50;99.90;;;;;;4935079;28;20361;-73
2023/09/19 06:11:07;;;;;;;15.93;2.78;;;13.50;99.90;;;;;;4944613;29;20043;-69
2023/09/19 06:13:33;;;;;;;12.93;2.95;;;13.60;99.90;;;;;;4937250;28;20083;-71
2023/09/19 06:16:02;;;;;;;15.18;3.25;;;13.60;99.90;;;;;;4936065;29;20127;-70
2023/09/19 06:18:29;;;;;;;24.30;3.17;;;13.60;99.90;;;;;;4930668;29;20040;-73
2023/09/19 06:20:55;;;;;;;14.30;2.65;;;13.70;99.90;;;;;;4931739;29;20058;-69
2023/09/19 06:23:22;;;;;;;13.23;2.65;;;13.70;99.90;;;;;;4934277;29;20027;-70
2023/09/19 06:25:48;;;;;;;16.30;2.78;;;13.80;99.90;;;;;;4935495;28;20047;-69
2023/09/19 06:28:14;;;;;;;12.63;2.83;;;13.80;99.90;;;;;;4952437;28;20049;-70
2023/09/19 06:30:40;;;;;;;11.60;3.13;;;13.80;99.90;;;;;;4933180;29;20073;-69
2023/09/19 06:33:06;;;;;;;12.60;3.42;;;13.80;99.90;;;;;;4935909;29;20039;-69
2023/09/19 06:35:33;;;;;;;13.07;2.65;;;13.80;99.90;;;;;;4933441;29;20066;-69
2023/09/19 06:38:02;;;;;;;11.48;2.75;;;13.80;99.90;;;;;;4940000;29;20094;-70
2023/09/19 06:40:30;;;;;;;11.82;2.47;;;13.70;99.90;;;;;;4933528;28;20051;-70
2023/09/19 06:42:56;;;;;;;9.70;2.75;;;13.70;99.90;;;;;;4935203;29;20047;-69
2023/09/19 06:45:22;;;;;;;13.95;3.20;;;13.80;99.90;;;;;;4934642;28;20054;-69
2023/09/19 06:47:51;;;;;;;11.68;3.00;;;13.80;99.90;;;;;;4930758;28;20046;-72
2023/09/19 06:50:25;;;;;;;10.30;2.67;;;13.80;99.90;;;;;;4927913;29;20055;-74
2023/09/19 06:52:53;;;;;;;10.07;2.80;;;13.80;99.90;;;;;;4942900;29;20054;-71
2023/09/19 06:55:19;;;;;;;16.15;3.83;;;13.90;99.90;;;;;;4940605;28;20495;-69
2023/09/19 06:57:46;;;;;;;16.25;2.90;;;13.90;99.90;;;;;;4933555;28;20122;-76
2023/09/19 07:00:18;;;;;;;14.50;2.78;;;14.00;99.90;;;;;;4931410;29;20177;-70
2023/09/19 07:03:00;;;;;;;15.65;2.65;;;14.00;99.90;;;;;;4950489;29;20409;-69
2023/09/19 07:05:30;;;;;;;;;;;14.00;99.90;;;;;;4935290;29;20043;-69
2023/09/19 07:07:58;;;;;;;19.33;3.60;;;14.00;99.90;;;;;;4936698;29;19919;-69
2023/09/19 07:10:28;;;;;;;15.82;3.28;;;14.10;99.90;;;;;;4952502;28;20397;-69
2023/09/19 07:12:58;;;;;;;11.40;2.72;;;14.20;99.90;;;;;;4952746;28;20170;-77
2023/09/19 07:15:24;;;;;;;8.95;2.40;;;14.20;99.90;;;;;;4933360;29;20048;-73
2023/09/19 07:17:55;;;;;;;13.43;2.83;;;14.20;99.90;;;;;;4934326;29;20097;-75
2023/09/19 07:20:23;;;;;;;13.18;2.83;;;14.20;99.90;;;;;;4933626;29;20066;-73
2023/09/19 07:22:50;;;;;;;13.82;3.05;;;14.30;99.90;;;;;;4931619;28;20386;-75
2023/09/19 07:25:16;;;;;;;12.35;2.78;;;14.40;99.90;;;;;;4931607;29;20046;-81
2023/09/19 07:27:42;;;;;;;11.38;2.70;;;14.30;99.90;;;;;;4939269;29;20059;-73
2023/09/19 07:30:09;;;;;;;16.17;3.13;;;14.50;99.90;;;;;;4938201;28;20193;-74
2023/09/19 07:32:36;;;;;;;12.10;2.50;;;14.50;99.90;;;;;;4940415;29;20086;-76
2023/09/19 07:35:03;;;;;;;11.60;2.65;;;14.60;99.90;;;;;;4934812;29;20051;-73
2023/09/19 07:37:33;;;;;;;11.15;2.67;;;14.60;99.90;;;;;;4933799;29;20047;-74
2023/09/19 07:40:00;;;;;;;8.65;2.30;;;14.70;99.90;;;;;;4933536;29;20043;-80
2023/09/19 07:42:26;;;;;;;11.73;3.13;;;14.70;99.90;;;;;;4955932;28;20456;-74
2023/09/19 07:44:53;;;;;;;12.60;3.45;;;14.70;99.90;;;;;;4954997;28;20134;-73
2023/09/19 07:47:20;;;;;;;12.15;2.72;;;14.80;99.90;;;;;;4942571;28;20091;-75
2023/09/19 07:49:47;;;;;;;14.45;2.97;;;14.80;99.90;;;;;;4951318;29;20059;-73
2023/09/19 07:52:13;;;;;;;14.90;3.10;;;14.80;99.90;;;;;;4941003;28;20047;-75
2023/09/19 07:54:41;;;;;;;11.07;3.10;;;14.90;99.90;;;;;;4939057;29;20051;-75
2023/09/19 07:57:07;;;;;;;12.00;2.65;;;14.90;99.90;;;;;;4934632;29;20086;-77
2023/09/19 07:59:32;;;;;;;15.52;3.53;;;14.90;99.90;;;;;;4934135;29;20075;-75
2023/09/19 08:01:58;;;;;;;14.75;3.00;;;15.00;99.90;;;;;;4943715;29;20035;-73
2023/09/19 08:04:25;;;;;;;10.68;3.08;;;15.10;99.90;;;;;;4953311;28;20039;-73
2023/09/19 08:06:52;;;;;;;10.90;2.67;;;15.20;99.90;;;;;;4938369;28;20405;-76
2023/09/19 08:09:20;;;;;;;13.13;2.97;;;15.20;99.90;;;;;;4938313;29;20074;-75
2023/09/19 08:11:47;;;;;;;13.68;3.15;;;15.20;99.90;;;;;;4954248;28;20047;-73
2023/09/19 08:14:14;;;;;;;13.57;3.55;;;15.30;99.90;;;;;;4945558;29;20043;-76
2023/09/19 08:16:40;;;;;;;16.95;3.20;;;15.30;99.90;;;;;;4939150;29;20039;-74
2023/09/19 08:19:05;;;;;;;19.90;3.10;;;15.30;99.90;;;;;;4937882;29;20093;-75
2023/09/19 08:21:32;;;;;;;17.38;3.25;;;15.30;99.90;;;;;;4938606;29;20043;-74
2023/09/19 08:23:57;;;;;;;19.25;3.80;;;15.30;99.90;;;;;;4940233;28;20116;-78
2023/09/19 08:26:24;;;;;;;15.77;3.35;;;15.30;99.90;;;;;;4954774;28;20039;-74
2023/09/19 08:28:51;;;;;;;11.35;3.03;;;15.40;99.90;;;;;;4939735;28;20043;-78
2023/09/19 08:31:17;;;;;;;14.88;3.83;;;15.40;99.90;;;;;;4939477;29;20035;-78
2023/09/19 08:33:51;;;;;;;14.07;3.03;;;15.50;99.90;;;;;;4943756;29;20524;-74
2023/09/19 08:36:16;;;;;;;13.52;2.95;;;15.50;99.90;;;;;;4951514;28;20047;-73
2023/09/19 08:38:42;;;;;;;19.05;3.03;;;15.60;99.90;;;;;;4937534;29;20490;-75
2023/09/19 08:41:08;;;;;;;11.07;3.47;;;15.60;99.90;;;;;;4920748;29;20036;-77
2023/09/19 08:43:35;;;;;;;19.25;3.35;;;15.70;99.90;;;;;;4953872;29;20651;-77
2023/09/19 08:46:13;;;;;;;15.45;3.60;;;15.70;99.90;;;;;;4945112;28;20043;-73
2023/09/19 08:48:49;;;;;;;16.50;3.25;;;15.80;99.90;;;;;;4953839;29;20071;-74
2023/09/19 08:51:45;;;;;;;16.60;3.35;;;15.80;99.90;;;;;;4936783;29;20481;-74
2023/09/19 08:54:26;;;;;;;15.18;3.42;;;15.90;99.90;;;;;;4945225;29;20093;-74
2023/09/19 08:56:54;;;;;;;15.45;3.38;;;15.80;99.90;;;;;;4930769;29;20122;-73
2023/09/19 08:59:26;;;;;;;11.93;2.92;;;16.00;99.90;;;;;;4954580;28;20049;-73
2023/09/19 09:01:53;;;;;;;13.95;2.78;;;16.00;99.90;;;;;;4953556;29;20039;-73
2023/09/19 09:06:55;;;;;;;18.58;4.32;;;16.10;99.90;;;;;;4989050;28;20136;-71
2023/09/19 09:09:20;;;;;;;14.13;3.00;;;16.20;99.90;;;;;;4981167;28;20117;-71
2023/09/19 09:11:50;;;;;;;12.85;3.40;;;16.30;99.90;;;;;;4992354;28;20050;-71
2023/09/19 09:14:17;;;;;;;12.25;3.00;;;16.40;99.90;;;;;;4978956;28;20065;-71
2023/09/19 09:16:42;;;;;;;16.92;3.25;;;16.50;99.90;;;;;;4975555;28;20073;-71
2023/09/19 09:19:08;;;;;;;12.65;3.03;;;16.50;99.90;;;;;;4993192;28;20480;-70
2023/09/19 09:21:36;;;;;;;13.90;2.85;;;16.60;99.90;;;;;;4974743;28;20042;-71
2023/09/19 09:25:01;;;;;;;13.85;3.00;;;16.70;99.90;;;;;;4992654;28;20043;-71
2023/09/19 09:27:26;;;;;;;14.32;3.05;;;16.80;99.90;;;;;;4945727;28;20054;-71
2023/09/19 09:29:54;;;;;;;14.80;3.10;;;16.90;99.90;;;;;;4935959;29;20047;-70
2023/09/19 09:32:36;;;;;;;15.48;3.45;;;16.90;99.90;;;;;;4975911;28;20061;-71
2023/09/19 09:35:10;;;;;;;13.98;3.20;;;17.00;99.90;;;;;;4992450;28;20039;-71
2023/09/19 09:37:38;;;;;;;17.63;3.47;;;17.10;99.90;;;;;;4974726;28;20035;-72
2023/09/19 09:42:46;;;;;;;15.57;3.08;;;17.20;99.90;;;;;;4991650;28;20082;-70
2023/09/19 09:45:28;;;;;;;12.93;3.03;;;17.30;99.90;;;;;;4968471;28;20049;-74
2023/09/19 09:47:57;;;;;;;14.57;3.22;;;17.40;99.90;;;;;;4974703;28;20076;-75
2023/09/19 09:50:44;;;;;;;12.82;3.45;;;17.50;99.90;;;;;;4981838;28;20054;-71
2023/09/19 09:53:34;;;;;;;11.82;2.83;;;17.60;99.90;;;;;;4990537;28;20038;-74
2023/09/19 09:56:09;;;;;;;13.93;3.00;;;17.70;99.90;;;;;;4977971;28;20100;-72
2023/09/19 09:58:36;;;;;;;12.68;2.88;;;17.70;99.90;;;;;;4992330;28;20038;-72
2023/09/19 10:01:08;;;;;;;10.25;3.15;;;17.70;99.90;;;;;;4974071;28;20683;-74
2023/09/19 10:03:43;;;;;;;11.35;3.10;;;17.80;99.90;;;;;;4973073;28;20045;-77
2023/09/19 10:09:11;;;;;;;13.82;3.63;;;17.80;99.90;;;;;;4974892;28;20078;-72
2023/09/19 10:11:44;;;;;;;14.20;3.65;;;17.90;99.90;;;;;;4989991;28;20140;-72
2023/09/19 10:14:15;;;;;;;15.07;3.70;;;17.90;99.90;;;;;;4987366;28;20097;-72
2023/09/19 10:16:49;;;;;;;16.50;3.78;;;17.90;99.90;;;;;;4976666;28;20046;-72
2023/09/19 10:19:49;;;;;;;13.43;3.30;;;18.00;99.90;;;;;;4980359;28;20097;-73
2023/09/19 10:22:20;;;;;;;15.95;3.05;;;18.10;99.90;;;;;;4958398;28;20054;-72
2023/09/19 10:24:47;;;;;;;12.55;3.55;;;18.10;99.90;;;;;;4977598;28;20046;-72
2023/09/19 10:27:14;;;;;;;12.43;3.30;;;18.10;99.90;;;;;;4973745;28;20412;-76
2023/09/19 10:29:42;;;;;;;13.43;3.22;;;18.00;99.90;;;;;;4974307;28;20109;-72
2023/09/19 10:32:08;;;;;;;9.10;2.70;;;17.90;99.90;;;;;;4973497;28;20043;-73
2023/09/19 10:34:36;;;;;;;12.57;3.28;;;17.90;99.90;;;;;;4991001;28;20077;-72
2023/09/19 10:37:05;;;;;;;9.95;2.67;;;17.90;99.90;;;;;;4975176;28;20046;-72
2023/09/19 10:39:32;;;;;;;13.82;2.92;;;18.00;99.90;;;;;;4990069;28;20038;-75
2023/09/19 10:42:05;;;;;;;14.60;3.55;;;18.00;99.90;;;;;;4990243;28;20030;-72
2023/09/19 10:44:33;;;;;;;10.02;3.10;;;18.10;99.90;;;;;;4970038;28;20053;-72
2023/09/19 10:46:59;;;;;;;11.80;2.75;;;18.10;99.90;;;;;;4991323;28;20045;-72
2023/09/19 10:49:25;;;;;;;12.15;2.78;;;18.10;99.90;;;;;;4991462;28;20046;-72
2023/09/19 10:51:59;;;;;;;14.63;3.13;;;18.00;99.90;;;;;;4975660;28;20050;-75
2023/09/19 10:54:28;;;;;;;15.82;3.20;;;17.90;99.90;;;;;;4989951;28;20085;-72
2023/09/19 10:56:58;;;;;;;9.90;3.10;;;17.80;99.90;;;;;;4982034;28;20057;-72
2023/09/19 10:59:24;;;;;;;14.23;2.85;;;17.80;99.90;;;;;;4986332;28;20085;-73
2023/09/19 11:01:58;;;;;;;14.52;3.17;;;17.90;99.90;;;;;;4972384;28;20489;-74
2023/09/19 11:04:35;;;;;;;14.85;2.85;;;17.90;99.90;;;;;;4976703;28;20117;-76
2023/09/19 11:07:11;;;;;;;11.70;3.03;;;17.90;99.90;;;;;;4986980;28;20050;-72
2023/09/19 11:09:58;;;;;;;13.68;2.60;;;17.90;99.90;;;;;;4976195;28;20064;-72
2023/09/19 11:12:30;;;;;;;13.13;2.33;;;17.90;99.90;;;;;;4974445;28;20041;-73
2023/09/19 11:14:56;;;;;;;;;;;17.90;99.90;;;;;;4991044;28;20529;-75
2023/09/19 11:17:31;;;;;;;17.13;3.50;;;18.10;99.90;;;;;;4972722;28;19922;-76
2023/09/19 11:20:15;;;;;;;14.05;3.58;;;18.20;99.90;;;;;;4973789;28;20050;-72
2023/09/19 11:22:53;;;;;;;14.85;3.08;;;18.30;99.90;;;;;;4977648;28;20113;-73
2023/09/19 11:25:32;;;;;;;13.18;2.85;;;18.40;99.90;;;;;;4973106;28;20046;-73
2023/09/19 11:30:36;;;;;;;11.30;2.63;;;18.60;99.90;;;;;;4986632;28;20043;-76
2023/09/19 11:33:31;;;;;;;13.82;3.03;;;18.60;99.90;;;;;;4983899;28;20065;-72
2023/09/19 11:36:12;;;;;;;13.68;3.50;;;18.60;99.90;;;;;;4983916;28;20048;-76
2023/09/19 11:38:52;;;;;;;10.88;2.55;;;18.60;99.90;;;;;;4985664;28;20058;-73
2023/09/19 11:41:29;;;;;;;14.18;3.25;;;18.60;99.90;;;;;;4975719;28;20553;-77
2023/09/19 11:44:03;;;;;;;11.45;2.75;;;18.50;99.90;;;;;;4966483;28;20441;-72
2023/09/19 11:46:31;;;;;;;18.30;3.28;;;18.50;99.90;;;;;;4988432;28;20397;-76
2023/09/19 11:49:09;;;;;;;15.73;3.13;;;18.40;99.90;;;;;;4990661;28;20096;-74
2023/09/19 11:51:42;;;;;;;10.32;2.28;;;18.40;99.90;;;;;;4968388;28;20042;-72
2023/09/19 11:54:24;;;;;;;11.85;2.42;;;18.30;99.90;;;;;;4960734;28;20121;-73
2023/09/19 11:56:51;;;;;;;8.35;2.53;;;18.30;99.90;;;;;;4961841;28;20047;-72
2023/09/19 11:59:22;;;;;;;10.00;2.13;;;18.30;99.90;;;;;;4974153;28;20042;-76
2023/09/19 12:01:57;;;;;;;13.90;2.78;;;18.40;99.90;;;;;;4977229;28;20042;-73
2023/09/19 12:04:45;;;;;;;10.55;2.55;;;18.30;99.90;;;;;;4973174;28;20053;-73
2023/09/19 12:07:15;;;;;;;12.30;2.50;;;18.30;99.90;;;;;;4976527;28;20046;-72
2023/09/19 12:09:43;;;;;;;8.35;2.60;;;18.30;99.90;;;;;;4971805;28;20129;-73
2023/09/19 12:12:12;;;;;;;9.20;2.47;;;18.30;99.90;;;;;;4979417;28;20075;-73
2023/09/19 12:14:41;;;;;;;11.10;2.53;;;18.20;99.90;;;;;;4990749;28;20394;-76
2023/09/19 12:17:06;;;;;;;7.97;2.50;;;18.20;99.90;;;;;;4998730;28;20385;-73
2023/09/19 12:19:32;;;;;;;10.32;2.03;;;18.20;99.90;;;;;;4987115;28;20037;-73
2023/09/19 12:22:04;;;;;;;8.48;2.08;;;18.20;99.90;;;;;;4964675;28;20045;-76
2023/09/19 12:24:29;;;;;;;8.43;2.42;;;18.10;99.90;;;;;;4989556;28;20182;-75
2023/09/19 12:27:04;;;;;;;8.77;2.30;;;18.00;99.90;;;;;;4975587;28;20624;-73
2023/09/19 12:29:31;;;;;;;11.50;2.78;;;18.00;99.90;;;;;;4973053;28;20306;-73
2023/09/19 12:32:03;;;;;;;14.40;2.92;;;18.10;99.90;;;;;;4986517;28;20540;-73
2023/09/19 12:34:36;;;;;;;8.82;2.40;;;18.10;99.90;;;;;;4975887;28;20042;-73
2023/09/19 12:37:27;;;;;;;8.40;2.28;;;18.20;99.90;;;;;;4958732;28;20058;-74
2023/09/19 12:40:14;;;;;;;13.80;2.53;;;18.30;99.90;;;;;;4993138;28;20456;-73
2023/09/19 12:42:41;;;;;;;11.80;2.55;;;18.30;99.90;;;;;;4990260;28;20424;-76
2023/09/19 12:45:09;;;;;;;11.40;2.65;;;18.30;99.90;;;;;;4974325;28;20105;-76
2023/09/19 12:47:35;;;;;;;9.50;2.72;;;18.30;99.90;;;;;;4971153;28;20078;-74
2023/09/19 12:50:25;;;;;;;10.68;2.42;;;18.40;99.90;;;;;;4968437;28;20135;-77
2023/09/19 12:52:53;;;;;;;10.35;2.17;;;18.40;99.90;;;;;;4973739;28;20113;-74
2023/09/19 12:55:27;;;;;;;11.57;2.50;;;18.40;99.90;;;;;;4972859;28;20288;-73
2023/09/19 12:58:12;;;;;;;7.85;2.35;;;18.40;99.90;;;;;;4956131;28;20046;-76
2023/09/19 13:00:42;;;;;;;6.88;2.33;;;18.40;99.90;;;;;;4987622;28;20618;-73
2023/09/19 13:03:35;;;;;;;8.43;2.10;;;18.30;99.90;;;;;;4979304;28;20046;-73
2023/09/19 13:06:04;;;;;;;8.48;2.42;;;18.20;99.90;;;;;;4984051;28;20409;-77